Time;durP1;ratioP1;P1;durP2;ratioP2;P2;SDS_P1;SDS_P2;PMS_P1;PMS_P2;Temp;Humidity;BMP_temperature;BMP_pressure;BME280_temperature;BME280_humidity;BME280_pressure;Samples;Min_cycle;Max_cycle;Signal;HPM_P1;HPM_P2
2024/01/30 00:04:58;;;;;;;15.70;6.40;;;;;;;2.68;74.35;100278.39;435037;1255;99494;-39
2024/01/30 00:15:08;;;;;;;18.70;8.60;;;;;;;2.70;73.84;100270.55;435156;1254;108213;-40
2024/01/30 00:25:12;;;;;;;14.20;7.60;;;;;;;2.67;73.62;100258.83;435191;1254;97741;-40
2024/01/30 00:45:19;;;;;;;16.90;6.80;;;;;;;2.64;73.86;100259.79;435208;1253;109317;-40
2024/01/30 00:55:24;;;;;;;17.10;8.90;;;;;;;2.66;73.86;100254.59;435253;1255;97876;-38
2024/01/30 01:05:31;;;;;;;12.60;7.60;;;;;;;2.62;73.80;100248.48;435197;1256;97880;-40
2024/01/30 01:15:37;;;;;;;13.60;7.40;;;;;;;2.57;73.78;100248.23;435241;1253;108752;-39
2024/01/30 01:25:40;;;;;;;13.80;6.50;;;;;;;2.59;73.85;100236.20;435185;1252;97877;-38
2024/01/30 01:35:47;;;;;;;17.50;8.20;;;;;;;2.61;73.61;100231.14;435364;1256;110229;-40
2024/01/30 01:45:51;;;;;;;19.90;8.30;;;;;;;2.53;73.71;100223.89;435144;1253;108443;-39
2024/01/30 01:55:55;;;;;;;16.30;7.60;;;;;;;2.46;73.65;100222.96;435250;1256;97899;-39
2024/01/30 02:05:59;;;;;;;12.40;5.60;;;;;;;2.50;73.24;100223.26;436301;1255;97897;-39
2024/01/30 02:16:03;;;;;;;18.40;9.30;;;;;;;2.53;73.20;100224.63;436256;1253;108490;-40
2024/01/30 02:26:06;;;;;;;17.40;8.50;;;;;;;2.44;73.22;100219.48;436154;1253;97800;-39
2024/01/30 02:46:12;;;;;;;15.50;8.50;;;;;;;2.37;72.97;100221.66;436123;1251;108014;-39
2024/01/30 02:56:16;;;;;;;16.60;8.80;;;;;;;2.39;72.76;100219.02;436269;1253;97483;-39
2024/01/30 03:06:20;;;;;;;15.40;8.00;;;;;;;2.31;72.80;100214.88;436322;1254;97848;-38
2024/01/30 03:16:27;;;;;;;14.70;7.50;;;;;;;2.19;72.97;100221.80;436260;1248;108680;-40
2024/01/30 03:26:31;;;;;;;11.90;5.90;;;;;;;2.16;72.98;100216.81;436135;1248;98316;-38
2024/01/30 03:36:35;;;;;;;15.80;8.30;;;;;;;2.15;73.14;100213.91;436179;1254;109645;-39
2024/01/30 03:46:38;;;;;;;14.90;8.10;;;;;;;2.02;73.23;100205.35;436261;1248;97884;-45
2024/01/30 03:56:45;;;;;;;17.20;9.70;;;;;;;1.89;73.39;100198.66;436126;1251;96565;-39
2024/01/30 04:06:52;;;;;;;12.20;6.90;;;;;;;1.82;73.43;100206.02;436149;1251;97858;-41
2024/01/30 04:37:06;;;;;;;17.50;9.10;;;;;;;1.67;73.90;100216.30;436226;1251;100110;-38
2024/01/30 04:57:13;;;;;;;13.30;7.70;;;;;;;1.65;73.85;100233.66;436261;1250;97858;-40
2024/01/30 05:07:18;;;;;;;21.40;10.40;;;;;;;1.63;74.04;100227.26;436373;1252;97885;-40
2024/01/30 05:17:21;;;;;;;17.80;10.10;;;;;;;1.57;73.96;100225.11;436341;1254;96667;-39
2024/01/30 05:27:25;;;;;;;25.60;10.40;;;;;;;1.48;73.91;100219.85;436359;1253;107825;-39
2024/01/30 05:37:28;;;;;;;15.10;7.80;;;;;;;1.43;74.03;100222.88;436213;1254;96650;-40
2024/01/30 05:47:32;;;;;;;29.00;9.90;;;;;;;1.39;73.96;100227.38;436205;1253;109758;-40
2024/01/30 05:57:37;;;;;;;24.80;10.40;;;;;;;1.31;74.07;100232.10;436264;1252;108281;-40
2024/01/30 06:17:44;;;;;;;25.00;10.30;;;;;;;1.20;74.37;100239.83;436169;1253;98433;-41
2024/01/30 06:27:48;;;;;;;16.40;7.00;;;;;;;1.27;74.29;100232.10;436416;1247;107557;-39
2024/01/30 06:37:52;;;;;;;25.50;9.00;;;;;;;1.35;74.28;100232.02;436390;1250;97877;-39
2024/01/30 06:47:55;;;;;;;23.90;10.10;;;;;;;1.36;74.30;100224.31;436355;1253;107442;-39
2024/01/30 06:57:59;;;;;;;22.70;9.80;;;;;;;1.43;74.18;100221.97;436203;1253;97121;-39
2024/01/30 07:08:03;;;;;;;17.40;8.40;;;;;;;1.57;74.21;100226.85;436389;1253;98019;-40
2024/01/30 07:18:07;;;;;;;16.80;8.20;;;;;;;1.84;74.00;100225.51;436466;1250;108708;-40
2024/01/30 07:38:17;;;;;;;19.60;8.40;;;;;;;2.72;73.19;100226.46;436472;1252;98183;-39
2024/01/30 07:48:21;;;;;;;15.20;8.50;;;;;;;4.04;72.05;100222.89;436285;1247;108393;-40
2024/01/30 07:58:27;;;;;;;14.80;8.80;;;;;;;5.66;71.18;100226.46;436185;1253;97711;-40
2024/01/30 08:08:30;;;;;;;17.60;9.30;;;;;;;6.64;69.29;100225.08;436457;1249;97999;-40
2024/01/30 08:18:33;;;;;;;15.70;8.90;;;;;;;7.29;68.29;100233.84;436434;1253;97454;-39
2024/01/30 08:38:40;;;;;;;13.70;7.60;;;;;;;7.51;63.74;100231.98;436609;1252;97874;-39
2024/01/30 08:58:47;;;;;;;13.20;7.90;;;;;;;6.94;62.55;100221.55;436337;1248;108471;-39
2024/01/30 09:08:50;;;;;;;14.00;7.90;;;;;;;6.52;62.69;100210.92;436384;1253;98304;-40
2024/01/30 09:18:53;;;;;;;12.80;8.70;;;;;;;6.42;61.92;100204.66;436482;1253;97849;-40
2024/01/30 09:39:04;;;;;;;17.00;8.00;;;;;;;6.50;61.42;100196.15;436336;1253;97887;-42
2024/01/30 09:49:06;;;;;;;13.80;7.60;;;;;;;6.59;61.01;100193.38;436485;1252;96642;-40
2024/01/30 10:09:16;;;;;;;12.40;7.80;;;;;;;6.86;60.46;100187.27;436303;1253;97470;-40
2024/01/30 10:19:20;;;;;;;14.00;7.30;;;;;;;6.97;59.71;100181.19;436260;1253;109659;-41
2024/01/30 10:29:24;;;;;;;12.10;7.30;;;;;;;7.16;60.35;100172.95;436337;1253;96664;-40
2024/01/30 10:39:27;;;;;;;11.30;6.30;;;;;;;7.25;58.74;100157.16;436390;1253;96917;-39
2024/01/30 10:49:34;;;;;;;12.70;6.70;;;;;;;7.27;57.65;100156.46;436474;1252;97485;-40
2024/01/30 11:09:48;;;;;;;11.30;5.90;;;;;;;7.52;57.39;100137.65;436438;1249;96587;-40
2024/01/30 11:19:53;;;;;;;11.70;6.00;;;;;;;7.59;56.93;100128.05;436145;1253;97900;-39
2024/01/30 11:30:02;;;;;;;15.20;6.20;;;;;;;7.73;56.80;100123.18;436458;1248;109616;-40
2024/01/30 11:40:11;;;;;;;10.60;5.70;;;;;;;7.76;56.77;100126.67;436275;1249;107786;-38
2024/01/30 11:50:16;;;;;;;12.50;5.90;;;;;;;7.80;55.90;100117.98;436485;1251;97894;-40
2024/01/30 12:00:20;;;;;;;9.30;6.50;;;;;;;7.82;55.50;100106.00;436351;1253;97854;-40
2024/01/30 12:20:27;;;;;;;12.70;5.60;;;;;;;7.72;54.79;100086.39;436312;1252;108357;-41
2024/01/30 12:30:31;;;;;;;10.00;6.00;;;;;;;7.79;53.56;100071.40;436403;1253;97899;-39
2024/01/30 12:40:33;;;;;;;10.50;7.00;;;;;;;7.75;53.23;100058.29;436346;1253;97877;-39
2024/01/30 12:50:37;;;;;;;9.70;5.90;;;;;;;7.78;53.95;100060.12;436436;1251;107849;-39
2024/01/30 13:20:54;;;;;;;12.90;6.90;;;;;;;7.64;53.35;100048.68;436375;1253;106867;-40
2024/01/30 13:30:58;;;;;;;9.20;5.80;;;;;;;7.63;53.87;100043.85;436272;1251;96914;-41
2024/01/30 13:41:03;;;;;;;14.30;8.90;;;;;;;7.60;53.59;100039.86;436351;1253;96634;-38
2024/01/30 13:51:06;;;;;;;10.60;5.70;;;;;;;7.51;53.28;100035.99;436225;1250;107688;-38
2024/01/30 14:01:10;;;;;;;12.70;7.00;;;;;;;7.42;52.88;100032.81;436362;1253;96638;-40
2024/01/30 14:11:16;;;;;;;11.60;6.40;;;;;;;7.35;53.16;100029.90;436382;1251;97871;-39
2024/01/30 14:21:20;;;;;;;16.00;7.50;;;;;;;7.25;53.64;100024.92;436276;1247;108594;-39
2024/01/30 14:31:24;;;;;;;14.50;7.70;;;;;;;7.08;54.08;100020.11;436308;1254;97585;-39
2024/01/30 14:41:28;;;;;;;20.00;8.10;;;;;;;6.92;53.95;100021.33;436408;1251;97928;-38
2024/01/30 15:01:35;;;;;;;15.30;8.50;;;;;;;6.49;53.30;100016.60;436428;1254;97429;-40
2024/01/30 15:11:38;;;;;;;13.50;8.40;;;;;;;6.29;53.34;100018.33;436301;1253;97918;-40
2024/01/30 15:31:46;;;;;;;16.80;8.90;;;;;;;5.85;54.06;100029.41;436231;1254;109274;-39
2024/01/30 15:41:53;;;;;;;18.50;11.20;;;;;;;5.64;54.24;100029.86;436329;1253;97869;-40
2024/01/30 15:52:00;;;;;;;21.80;10.90;;;;;;;5.47;54.75;100028.40;436333;1253;111520;-40
2024/01/30 16:02:07;;;;;;;17.90;10.80;;;;;;;5.28;55.36;100024.80;436223;1253;109402;-39
2024/01/30 16:12:11;;;;;;;24.00;12.20;;;;;;;5.09;55.87;100026.95;436259;1254;96661;-40
2024/01/30 16:22:15;;;;;;;31.60;15.20;;;;;;;4.90;56.45;100027.38;436528;1252;97473;-41
2024/01/30 16:32:22;;;;;;;23.30;12.00;;;;;;;4.72;57.06;100029.94;436391;1261;108626;-39
2024/01/30 16:42:26;;;;;;;28.90;14.20;;;;;;;4.58;57.36;100027.02;436454;1253;109270;-40
2024/01/30 17:02:33;;;;;;;22.20;10.20;;;;;;;4.43;58.10;100012.48;436384;1253;96594;-39
2024/01/30 17:12:37;;;;;;;20.50;10.80;;;;;;;4.41;58.23;100002.63;436277;1253;107287;-40
2024/01/30 17:22:44;;;;;;;18.40;10.50;;;;;;;4.38;58.48;99991.35;436329;1253;97865;-38
2024/01/30 17:32:50;;;;;;;17.50;8.80;;;;;;;4.41;58.23;99976.40;436391;1252;110733;-39
2024/01/30 17:53:00;;;;;;;15.90;9.40;;;;;;;4.36;58.75;99974.81;436385;1253;96645;-40
2024/01/30 18:03:05;;;;;;;18.00;9.30;;;;;;;4.24;59.21;99984.24;436315;1261;97919;-40
2024/01/30 18:13:13;;;;;;;21.30;9.50;;;;;;;4.10;59.72;99978.35;436272;1253;111193;-40
2024/01/30 18:23:15;;;;;;;22.80;10.80;;;;;;;3.97;60.44;99982.09;436353;1253;106672;-39
2024/01/30 18:33:19;;;;;;;19.60;10.40;;;;;;;3.85;61.01;99982.67;436379;1252;97871;-39
2024/01/30 18:43:23;;;;;;;19.70;10.80;;;;;;;3.72;61.40;99979.70;436601;1254;97848;-39
2024/01/30 18:53:26;;;;;;;18.00;9.10;;;;;;;3.61;61.99;99979.82;436291;1252;109148;-39
2024/01/30 19:13:33;;;;;;;23.50;10.40;;;;;;;3.41;62.84;99978.83;436574;1253;98069;-38
2024/01/30 19:23:37;;;;;;;20.70;11.10;;;;;;;3.33;63.25;99975.73;436287;1254;108601;-39
2024/01/30 19:33:40;;;;;;;24.60;10.90;;;;;;;3.23;63.53;99970.95;436182;1261;97877;-39
2024/01/30 19:43:43;;;;;;;29.30;12.70;;;;;;;3.14;63.87;99971.17;436359;1260;97919;-39
2024/01/30 19:53:47;;;;;;;14.50;8.00;;;;;;;3.12;64.33;99977.70;436279;1251;108393;-40
2024/01/30 20:03:50;;;;;;;23.90;10.90;;;;;;;3.12;64.82;99974.72;436419;1253;97469;-40
2024/01/30 20:13:54;;;;;;;23.90;11.60;;;;;;;3.01;65.28;99966.63;436165;1254;97473;-39
2024/01/30 20:23:56;;;;;;;20.70;11.80;;;;;;;2.91;65.78;99968.87;436290;1254;108447;-38
2024/01/30 20:34:00;;;;;;;25.80;11.20;;;;;;;2.82;66.21;99978.59;435962;1253;454711;-39
2024/01/30 20:54:09;;;;;;;24.00;11.20;;;;;;;2.86;66.62;99979.88;436464;1253;109229;-38
2024/01/30 21:04:14;;;;;;;22.30;12.60;;;;;;;2.82;67.08;99981.06;436293;1261;96666;-41
2024/01/30 21:14:17;;;;;;;21.50;12.10;;;;;;;2.76;67.44;99982.66;436365;1254;97874;-40
2024/01/30 21:24:21;;;;;;;24.00;10.60;;;;;;;2.72;67.75;99980.30;436279;1248;109472;-39
2024/01/30 21:34:24;;;;;;;14.10;8.40;;;;;;;2.79;68.17;99986.55;436238;1261;96673;-39
2024/01/30 21:44:27;;;;;;;17.60;10.30;;;;;;;2.84;68.28;99995.30;436294;1254;110566;-39
2024/01/30 21:54:34;;;;;;;20.00;10.10;;;;;;;2.80;68.61;99988.91;436337;1255;108500;-38
2024/01/30 22:24:46;;;;;;;12.40;8.30;;;;;;;2.59;69.34;99991.83;436285;1254;108600;-39
2024/01/30 22:34:50;;;;;;;18.60;11.40;;;;;;;2.58;69.75;100000.30;436357;1252;97868;-40
2024/01/30 22:44:53;;;;;;;24.40;12.20;;;;;;;2.48;69.83;100010.05;436292;1254;109375;-39
2024/01/30 22:55:15;;;;;;;22.90;12.10;;;;;;;2.37;69.94;100018.39;436022;1251;97861;-39
2024/01/30 23:05:18;;;;;;;15.20;8.50;;;;;;;2.34;70.03;100013.44;436286;1253;96712;-38
2024/01/30 23:15:22;;;;;;;21.00;10.80;;;;;;;2.36;70.29;100009.40;436326;1250;108881;-39
2024/01/30 23:35:28;;;;;;;26.00;12.80;;;;;;;2.19;70.86;99990.38;436304;1252;97989;-39
2024/01/30 23:45:32;;;;;;;23.90;13.50;;;;;;;2.09;71.18;99983.77;436176;1247;109745;-39
2024/01/30 23:55:36;;;;;;;16.90;9.90;;;;;;;2.07;71.44;99978.40;436039;1261;97881;-39
